createdAt,value
2022-10-09T00:01:08.340Z,63.72
2022-10-09T00:03:36.903Z,64.04
2022-10-09T00:06:05.277Z,64.08
2022-10-09T00:08:32.934Z,64.05
2022-10-09T00:11:05.835Z,64.22
2022-10-09T00:13:33.577Z,64.16
2022-10-09T00:16:03.751Z,64.06
2022-10-09T00:18:31.926Z,64.01
2022-10-09T00:20:59.627Z,64.08
2022-10-09T00:23:27.583Z,63.77
2022-10-09T00:25:57.075Z,63.84
2022-10-09T00:28:27.488Z,63.99
2022-10-09T00:30:55.323Z,64.05
2022-10-09T00:33:23.620Z,64.11
2022-10-09T00:35:51.474Z,64.08
2022-10-09T00:38:19.142Z,63.76
2022-10-09T00:40:46.832Z,63.83
2022-10-09T00:43:17.340Z,63.72
2022-10-09T00:45:55.512Z,63.67
2022-10-09T00:48:23.746Z,63.74
2022-10-09T00:50:53.485Z,63.42
2022-10-09T00:53:22.835Z,63.74
2022-10-09T00:55:50.611Z,63.60
2022-10-09T00:58:18.284Z,63.57
2022-10-09T01:00:47.459Z,63.36
2022-10-09T01:03:15.157Z,63.45
2022-10-09T01:05:50.035Z,63.17
2022-10-09T01:08:21.503Z,62.86
2022-10-09T01:10:51.634Z,63.33
2022-10-09T01:13:24.535Z,63.45
2022-10-09T01:15:56.256Z,63.06
2022-10-09T01:18:27.293Z,63.10
2022-10-09T01:20:56.569Z,63.65
2022-10-09T01:23:50.061Z,63.17
2022-10-09T01:26:29.863Z,63.67
2022-10-09T01:29:01.361Z,63.47
2022-10-09T01:31:30.993Z,63.66
2022-10-09T01:34:00.558Z,63.73
2022-10-09T01:36:29.293Z,63.61
2022-10-09T01:38:58.776Z,63.88
2022-10-09T01:41:26.972Z,63.62
2022-10-09T01:43:54.560Z,63.53
2022-10-09T01:46:26.595Z,63.57
2022-10-09T01:48:58.961Z,63.22
2022-10-09T01:51:31.288Z,63.23
2022-10-09T01:54:03.285Z,63.33
2022-10-09T01:56:32.153Z,63.65
2022-10-09T01:59:03.117Z,63.51
2022-10-09T02:01:34.175Z,63.21
2022-10-09T02:04:05.002Z,62.96
2022-10-09T02:06:32.920Z,63.29
2022-10-09T02:09:00.783Z,63.38
2022-10-09T02:11:30.859Z,63.49
2022-10-09T02:13:59.585Z,63.55
2022-10-09T02:16:37.410Z,63.23
2022-10-09T02:19:10.881Z,63.04
2022-10-09T02:21:45.090Z,63.01
2022-10-09T02:24:17.919Z,62.82
2022-10-09T02:26:45.562Z,62.40
2022-10-09T02:29:14.081Z,62.83
2022-10-09T02:31:44.280Z,63.81
2022-10-09T02:34:13.619Z,64.04
2022-10-09T02:36:42.004Z,63.97
2022-10-09T02:39:09.673Z,63.76
2022-10-09T02:41:37.370Z,64.26
2022-10-09T02:44:05.873Z,64.38
2022-10-09T02:46:34.150Z,64.21
2022-10-09T02:49:03.340Z,64.13
2022-10-09T02:51:31.026Z,64.44
2022-10-09T02:53:59.551Z,64.33
2022-10-09T02:56:27.471Z,64.54
2022-10-09T02:58:55.576Z,64.62
2022-10-09T03:01:23.468Z,64.48
2022-10-09T03:03:52.067Z,64.54
2022-10-09T03:06:22.876Z,64.71
2022-10-09T03:08:52.078Z,64.46
2022-10-09T03:11:21.198Z,64.53
2022-10-09T03:13:48.911Z,64.84
2022-10-09T03:16:17.963Z,64.60
2022-10-09T03:18:46.123Z,64.37
2022-10-09T03:21:15.541Z,64.72
2022-10-09T03:23:45.279Z,64.78
2022-10-09T03:26:14.455Z,64.69
2022-10-09T03:28:43.552Z,64.86
2022-10-09T03:31:27.416Z,64.99
2022-10-09T03:33:59.431Z,64.76
2022-10-09T03:36:27.108Z,64.67
2022-10-09T03:38:56.073Z,64.58
2022-10-09T03:41:23.785Z,64.36
2022-10-09T03:43:51.461Z,64.21
2022-10-09T03:46:19.135Z,64.02
2022-10-09T03:48:46.802Z,63.89
2022-10-09T03:51:14.424Z,63.81
2022-10-09T03:53:42.102Z,64.17
2022-10-09T03:56:11.170Z,64.30
2022-10-09T03:58:38.811Z,64.34
2022-10-09T04:01:06.569Z,64.45
2022-10-09T04:03:34.228Z,64.53
2022-10-09T04:06:01.820Z,65.02
2022-10-09T04:08:29.420Z,64.83
2022-10-09T04:10:58.522Z,64.63
2022-10-09T04:13:27.784Z,64.79
2022-10-09T04:15:55.788Z,64.60
2022-10-09T04:18:23.796Z,64.09
2022-10-09T04:20:52.050Z,64.17
2022-10-09T04:23:20.127Z,64.54
2022-10-09T04:25:47.940Z,64.23
2022-10-09T04:28:15.651Z,64.50
2022-10-09T04:30:44.723Z,64.88
2022-10-09T04:33:13.192Z,64.59
2022-10-09T04:35:42.973Z,64.48
2022-10-09T04:38:10.673Z,64.65
2022-10-09T04:40:38.755Z,64.29
2022-10-09T04:43:06.367Z,64.89
2022-10-09T04:45:34.109Z,64.96
2022-10-09T04:48:03.171Z,64.82
2022-10-09T04:50:30.794Z,64.75
2022-10-09T04:52:58.502Z,65.13
2022-10-09T04:55:26.197Z,64.57
2022-10-09T04:57:53.838Z,64.62
2022-10-09T05:00:21.483Z,64.89
2022-10-09T05:02:49.660Z,64.51
2022-10-09T05:05:18.917Z,64.20
2022-10-09T05:07:46.477Z,64.01
2022-10-09T05:10:14.083Z,64.00
2022-10-09T05:12:41.788Z,63.89
2022-10-09T05:15:10.221Z,63.92
2022-10-09T05:17:37.972Z,63.88
2022-10-09T05:20:06.193Z,63.82
2022-10-09T05:22:35.267Z,63.99
2022-10-09T05:25:02.911Z,64.16
2022-10-09T05:27:30.546Z,64.49
2022-10-09T05:29:58.199Z,64.26
2022-10-09T05:32:25.835Z,64.29
2022-10-09T05:34:53.509Z,64.67
2022-10-09T05:37:21.161Z,64.44
2022-10-09T05:39:50.158Z,64.14
2022-10-09T05:42:17.845Z,64.25
2022-10-09T05:44:45.393Z,64.13
2022-10-09T05:47:13.643Z,64.25
2022-10-09T05:49:41.256Z,63.96
2022-10-09T05:52:08.854Z,64.19
2022-10-09T05:54:36.539Z,64.36
2022-10-09T05:57:05.641Z,64.30
2022-10-09T05:59:33.277Z,64.22
2022-10-09T06:02:01.023Z,64.24
2022-10-09T06:04:29.110Z,64.27
2022-10-09T06:06:56.718Z,64.50
2022-10-09T06:09:26.085Z,64.86
2022-10-09T06:11:54.589Z,64.82
2022-10-09T06:14:24.445Z,65.22
2022-10-09T06:16:52.563Z,65.27
2022-10-09T06:19:20.987Z,65.47
2022-10-09T06:21:49.178Z,65.79
2022-10-09T06:24:24.307Z,65.69
2022-10-09T06:26:54.844Z,65.92
2022-10-09T06:29:24.125Z,65.78
2022-10-09T06:31:51.745Z,66.08
2022-10-09T06:34:19.369Z,66.39
2022-10-09T06:36:47.050Z,66.24
2022-10-09T06:39:14.671Z,66.60
2022-10-09T06:41:42.413Z,66.69
2022-10-09T06:44:17.336Z,66.68
2022-10-09T06:46:49.595Z,67.35
2022-10-09T06:49:17.309Z,67.61
2022-10-09T06:51:45.133Z,67.81
2022-10-09T06:54:13.857Z,67.63
2022-10-09T06:56:41.750Z,67.85
2022-10-09T06:59:09.754Z,68.16
2022-10-09T07:01:37.544Z,68.30
2022-10-09T07:04:08.214Z,68.09
2022-10-09T07:06:38.651Z,68.55
2022-10-09T07:09:08.813Z,68.89
2022-10-09T07:11:38.074Z,69.58
2022-10-09T07:14:07.554Z,69.42
2022-10-09T07:16:36.461Z,69.48
2022-10-09T07:19:07.410Z,69.91
2022-10-09T07:21:36.875Z,69.84
2022-10-09T07:24:05.644Z,70.08
2022-10-09T07:26:37.754Z,70.06
2022-10-09T07:29:06.134Z,70.56
2022-10-09T07:31:33.734Z,70.62
2022-10-09T07:34:01.717Z,70.75
2022-10-09T07:36:29.519Z,71.17
2022-10-09T07:38:59.803Z,71.12
2022-10-09T07:41:28.992Z,71.22
2022-10-09T07:43:57.130Z,71.41
2022-10-09T07:46:29.595Z,71.59
2022-10-09T07:49:00.089Z,71.71
2022-10-09T07:51:28.958Z,71.73
2022-10-09T07:53:59.989Z,71.57
2022-10-09T07:56:29.228Z,72.16
2022-10-09T07:58:58.140Z,72.58
2022-10-09T08:01:27.864Z,72.47
2022-10-09T08:03:56.045Z,72.34
2022-10-09T08:06:23.766Z,72.25
2022-10-09T08:08:52.074Z,72.62
2022-10-09T08:11:22.174Z,73.30
2022-10-09T08:13:50.576Z,73.48
2022-10-09T08:16:18.881Z,73.16
2022-10-09T08:18:46.640Z,73.33
2022-10-09T08:21:15.923Z,73.23
2022-10-09T08:23:44.229Z,73.13
2022-10-09T08:26:15.555Z,72.87
2022-10-09T08:28:45.781Z,72.62
2022-10-09T08:31:14.259Z,72.78
2022-10-09T08:33:42.576Z,72.80
2022-10-09T08:36:12.061Z,72.66
2022-10-09T08:38:48.199Z,72.07
2022-10-09T08:41:23.014Z,72.55
2022-10-09T08:43:53.738Z,72.20
2022-10-09T08:46:24.499Z,72.63
2022-10-09T08:48:52.877Z,72.55
2022-10-09T08:51:24.430Z,72.65
2022-10-09T08:53:57.409Z,71.57
2022-10-09T08:56:26.553Z,71.62
2022-10-09T08:58:55.618Z,72.84
2022-10-09T09:01:29.959Z,72.67
2022-10-09T09:04:12.468Z,71.63
2022-10-09T09:06:45.132Z,71.31
2022-10-09T09:09:18.522Z,70.09
2022-10-09T09:11:50.605Z,71.26
2022-10-09T09:14:36.067Z,71.16
2022-10-09T09:17:10.002Z,70.34
2022-10-09T09:19:50.023Z,70.05
2022-10-09T09:22:17.805Z,69.25
2022-10-09T09:24:48.798Z,68.80
2022-10-09T09:27:20.175Z,69.11
2022-10-09T09:29:55.826Z,68.68
2022-10-09T09:32:25.477Z,69.50
2022-10-09T09:34:54.959Z,69.37
2022-10-09T09:37:23.893Z,68.62
2022-10-09T09:40:35.119Z,67.98
2022-10-09T09:42:39.327Z,68.16
2022-10-09T09:45:14.166Z,68.98
2022-10-09T09:47:45.250Z,67.93
2022-10-09T09:50:35.010Z,66.50
2022-10-09T09:53:03.075Z,66.14
2022-10-09T09:55:32.521Z,66.12
2022-10-09T09:58:01.962Z,66.76
2022-10-09T10:00:31.169Z,65.11
2022-10-09T10:03:14.436Z,64.05
2022-10-09T10:05:43.357Z,63.35
2022-10-09T10:08:15.144Z,64.98
2022-10-09T10:10:47.693Z,64.61
2022-10-09T10:13:17.806Z,62.89
2022-10-09T10:15:52.856Z,62.50
2022-10-09T10:18:21.245Z,63.46
2022-10-09T10:20:50.703Z,62.68
2022-10-09T10:23:27.618Z,62.92
2022-10-09T10:25:56.879Z,61.33
2022-10-09T10:28:29.450Z,59.10
2022-10-09T10:31:02.300Z,59.73
2022-10-09T10:33:33.165Z,60.22
2022-10-09T10:36:01.244Z,59.49
2022-10-09T10:38:33.684Z,57.97
2022-10-09T10:41:09.839Z,57.67
2022-10-09T10:43:42.899Z,57.76
2022-10-09T10:46:17.126Z,59.42
2022-10-09T10:48:47.078Z,57.98
2022-10-09T10:51:30.568Z,56.38
2022-10-09T10:54:07.847Z,58.30
2022-10-09T10:56:38.474Z,56.99
2022-10-09T10:59:26.784Z,54.62
2022-10-09T11:02:06.665Z,54.34
2022-10-09T11:04:38.434Z,54.76
2022-10-09T11:07:13.021Z,54.55
2022-10-09T11:09:46.494Z,54.68
2022-10-09T11:12:30.091Z,55.85
2022-10-09T11:15:10.769Z,55.49
2022-10-09T11:17:47.261Z,53.40
2022-10-09T11:20:43.874Z,52.78
2022-10-09T11:23:16.529Z,52.71
2022-10-09T11:25:51.772Z,52.61
2022-10-09T11:28:22.047Z,53.50
2022-10-09T11:30:53.508Z,52.55
2022-10-09T11:33:30.777Z,52.23
2022-10-09T11:36:02.467Z,52.34
2022-10-09T11:38:33.473Z,50.55
2022-10-09T11:41:06.421Z,50.27
2022-10-09T11:43:44.956Z,50.60
2022-10-09T11:46:19.204Z,51.08
2022-10-09T11:48:51.567Z,51.33
2022-10-09T11:51:25.726Z,50.99
2022-10-09T11:53:54.426Z,49.41
2022-10-09T11:56:24.266Z,50.02
2022-10-09T11:58:59.802Z,51.63
2022-10-09T12:01:30.776Z,50.88
2022-10-09T12:04:05.852Z,49.98
2022-10-09T12:06:33.894Z,51.39
2022-10-09T12:09:03.487Z,50.20
2022-10-09T12:11:32.169Z,51.41
2022-10-09T12:14:02.150Z,51.58
2022-10-09T12:16:39.988Z,50.20
2022-10-09T12:19:23.259Z,49.92
2022-10-09T12:21:55.420Z,49.63
2022-10-09T12:24:25.498Z,50.13
2022-10-09T12:26:55.201Z,49.30
2022-10-09T12:29:28.596Z,50.01
2022-10-09T12:32:00.312Z,51.09
2022-10-09T12:34:32.015Z,50.92
2022-10-09T12:37:12.750Z,51.36
2022-10-09T12:39:40.822Z,50.82
2022-10-09T12:42:15.465Z,50.03
2022-10-09T12:44:43.164Z,50.15
2022-10-09T12:47:21.217Z,50.10
2022-10-09T12:50:00.743Z,49.89
2022-10-09T12:52:29.216Z,50.23
2022-10-09T12:54:56.957Z,50.20
2022-10-09T12:57:27.726Z,50.37
2022-10-09T12:59:56.413Z,50.16
2022-10-09T13:02:24.208Z,50.62
2022-10-09T13:05:02.148Z,50.34
2022-10-09T13:07:32.327Z,49.83
2022-10-09T13:10:03.671Z,50.26
2022-10-09T13:12:32.269Z,51.13
2022-10-09T13:15:01.152Z,51.36
2022-10-09T13:17:34.654Z,50.69
2022-10-09T13:20:05.624Z,50.66
2022-10-09T13:22:35.088Z,50.52
2022-10-09T13:25:04.110Z,50.91
2022-10-09T13:27:34.352Z,50.23
2022-10-09T13:30:02.472Z,50.41
2022-10-09T13:32:30.964Z,50.33
2022-10-09T13:34:58.565Z,50.48
2022-10-09T13:37:28.050Z,50.20
2022-10-09T13:39:57.273Z,50.02
2022-10-09T13:42:26.629Z,50.45
2022-10-09T13:44:54.837Z,50.00
2022-10-09T13:47:24.609Z,49.96
2022-10-09T13:49:52.690Z,50.08
2022-10-09T13:52:20.359Z,49.54
2022-10-09T13:54:49.518Z,50.20
2022-10-09T13:57:17.149Z,50.43
2022-10-09T13:59:44.849Z,50.63
2022-10-09T14:02:13.039Z,51.13
2022-10-09T14:04:41.115Z,50.12
2022-10-09T14:07:09.018Z,50.68
2022-10-09T14:09:36.886Z,51.55
2022-10-09T14:12:05.939Z,50.38
2022-10-09T14:14:33.694Z,50.20
2022-10-09T14:17:01.370Z,49.85
2022-10-09T14:19:29.001Z,49.53
2022-10-09T14:21:57.131Z,51.57
2022-10-09T14:24:25.530Z,49.52
2022-10-09T14:26:53.128Z,50.56
2022-10-09T14:29:22.162Z,50.91
2022-10-09T14:31:50.954Z,49.93
2022-10-09T14:34:18.679Z,49.70
2022-10-09T14:36:46.475Z,50.04
2022-10-09T14:39:14.155Z,49.49
2022-10-09T14:41:41.807Z,48.54
2022-10-09T14:44:10.976Z,49.45
2022-10-09T14:46:40.019Z,48.20
2022-10-09T14:49:08.605Z,49.55
2022-10-09T14:51:39.355Z,48.16
2022-10-09T14:54:08.220Z,47.31
2022-10-09T14:56:36.588Z,47.45
2022-10-09T14:59:05.852Z,47.84
2022-10-09T15:01:34.089Z,47.51
2022-10-09T15:04:03.924Z,47.91
2022-10-09T15:06:31.850Z,48.06
2022-10-09T15:09:04.593Z,47.56
2022-10-09T15:11:34.276Z,47.22
2022-10-09T15:14:01.984Z,47.69
2022-10-09T15:16:29.634Z,47.70
2022-10-09T15:18:58.241Z,47.80
2022-10-09T15:21:29.779Z,47.98
2022-10-09T15:23:59.235Z,47.42
2022-10-09T15:26:28.222Z,48.19
2022-10-09T15:28:55.936Z,48.18
2022-10-09T15:31:26.059Z,47.89
2022-10-09T15:33:54.864Z,48.76
2022-10-09T15:36:23.398Z,48.62
2022-10-09T15:38:52.450Z,48.61
2022-10-09T15:41:21.518Z,48.72
2022-10-09T15:43:49.788Z,47.93
2022-10-09T15:46:17.808Z,48.13
2022-10-09T15:48:45.718Z,48.05
2022-10-09T15:51:13.971Z,48.13
2022-10-09T15:53:42.624Z,48.65
2022-10-09T15:56:17.980Z,48.71
2022-10-09T15:58:45.794Z,48.69
2022-10-09T16:01:14.846Z,48.90
2022-10-09T16:03:42.924Z,48.85
2022-10-09T16:06:12.773Z,49.01
2022-10-09T16:08:40.960Z,48.76
2022-10-09T16:11:13.006Z,49.33
2022-10-09T16:13:42.676Z,49.27
2022-10-09T16:16:13.418Z,49.55
2022-10-09T16:18:41.059Z,49.53
2022-10-09T16:21:10.002Z,49.75
2022-10-09T16:23:37.862Z,49.53
2022-10-09T16:26:06.012Z,50.41
2022-10-09T16:28:35.643Z,49.83
2022-10-09T16:31:03.771Z,49.77
2022-10-09T16:33:31.512Z,50.35
2022-10-09T16:36:09.633Z,50.16
2022-10-09T16:38:37.988Z,50.34
2022-10-09T16:41:08.968Z,50.41
2022-10-09T16:43:38.479Z,50.65
2022-10-09T16:46:10.668Z,51.14
2022-10-09T16:48:38.320Z,50.95
2022-10-09T16:51:09.490Z,51.20
2022-10-09T16:53:37.256Z,51.73
2022-10-09T16:56:09.739Z,52.48
2022-10-09T16:58:38.862Z,53.20
2022-10-09T17:01:09.938Z,53.64
2022-10-09T17:03:40.288Z,53.42
2022-10-09T17:06:09.625Z,54.35
2022-10-09T17:08:37.325Z,54.50
2022-10-09T17:11:08.653Z,54.36
2022-10-09T17:13:38.044Z,54.64
2022-10-09T17:16:06.809Z,54.97
2022-10-09T17:18:35.208Z,53.86
2022-10-09T17:21:04.164Z,53.88
2022-10-09T17:23:31.973Z,54.17
2022-10-09T17:26:00.376Z,54.65
2022-10-09T17:28:28.087Z,54.97
2022-10-09T17:30:57.306Z,55.33
2022-10-09T17:33:24.931Z,55.50
2022-10-09T17:35:52.522Z,55.63
2022-10-09T17:38:20.153Z,55.47
2022-10-09T17:40:47.791Z,55.06
2022-10-09T17:43:15.438Z,54.94
2022-10-09T17:45:46.775Z,55.28
2022-10-09T17:48:15.983Z,55.00
2022-10-09T17:50:51.871Z,55.63
2022-10-09T17:53:19.616Z,55.67
2022-10-09T17:55:47.230Z,56.04
2022-10-09T17:58:14.828Z,55.98
2022-10-09T18:00:42.742Z,55.80
2022-10-09T18:03:10.667Z,55.98
2022-10-09T18:05:42.685Z,56.18
2022-10-09T18:08:10.366Z,56.48
2022-10-09T18:10:38.102Z,56.20
2022-10-09T18:13:06.019Z,56.49
2022-10-09T18:15:37.703Z,56.53
2022-10-09T18:18:05.481Z,56.77
2022-10-09T18:20:34.577Z,57.12
2022-10-09T18:23:03.745Z,56.68
2022-10-09T18:25:31.706Z,57.20
2022-10-09T18:28:00.276Z,57.33
2022-10-09T18:30:28.612Z,57.61
2022-10-09T18:32:56.292Z,57.65
2022-10-09T18:35:25.490Z,57.78
2022-10-09T18:37:53.329Z,58.10
2022-10-09T18:40:22.422Z,58.13
2022-10-09T18:42:50.405Z,58.38
2022-10-09T18:45:18.140Z,58.46
2022-10-09T18:47:46.085Z,58.70
2022-10-09T18:50:14.729Z,58.60
2022-10-09T18:52:42.968Z,58.80
2022-10-09T18:55:12.196Z,58.73
2022-10-09T18:57:41.913Z,59.04
2022-10-09T19:00:10.668Z,59.07
2022-10-09T19:05:11.171Z,59.08
2022-10-09T19:07:38.884Z,59.04
2022-10-09T19:10:07.747Z,59.32
2022-10-09T19:12:35.712Z,58.98
2022-10-09T19:15:11.043Z,58.98
2022-10-09T19:17:39.695Z,59.53
2022-10-09T19:20:08.237Z,59.13
2022-10-09T19:22:35.948Z,58.95
2022-10-09T19:25:03.769Z,58.92
2022-10-09T19:27:32.491Z,58.59
2022-10-09T19:30:00.990Z,58.68
2022-10-09T19:32:30.903Z,58.80
2022-10-09T19:34:58.661Z,59.09
2022-10-09T19:37:29.047Z,58.78
2022-10-09T19:39:57.980Z,59.04
2022-10-09T19:42:25.754Z,59.09
2022-10-09T19:44:53.351Z,59.15
2022-10-09T19:47:21.983Z,59.40
2022-10-09T19:49:51.042Z,59.41
2022-10-09T19:52:18.706Z,59.51
2022-10-09T19:54:46.400Z,59.37
2022-10-09T19:57:14.056Z,59.26
2022-10-09T19:59:41.640Z,59.33
2022-10-09T20:04:14.002Z,59.57
2022-10-09T20:06:43.010Z,59.26
2022-10-09T20:09:12.304Z,58.90
2022-10-09T20:12:34.234Z,59.01
2022-10-09T20:15:01.850Z,58.56
2022-10-09T20:17:29.783Z,58.73
2022-10-09T20:19:57.533Z,58.40
2022-10-09T20:22:25.262Z,58.51
2022-10-09T20:24:53.394Z,58.42
2022-10-09T20:27:21.074Z,58.20
2022-10-09T20:29:50.168Z,57.73
2022-10-09T20:32:18.491Z,57.77
2022-10-09T20:34:46.109Z,57.73
2022-10-09T20:37:13.830Z,57.74
2022-10-09T20:39:41.387Z,57.53
2022-10-09T20:42:09.009Z,57.29
2022-10-09T20:44:36.704Z,57.53
2022-10-09T20:47:05.814Z,57.43
2022-10-09T20:49:33.492Z,57.20
2022-10-09T20:52:01.214Z,57.45
2022-10-09T20:54:30.355Z,57.52
2022-10-09T20:56:59.350Z,57.26
2022-10-09T20:59:27.014Z,57.38
2022-10-09T21:01:54.628Z,57.28
2022-10-09T21:04:23.744Z,57.48
2022-10-09T21:06:51.333Z,57.50
2022-10-09T21:09:18.962Z,57.21
2022-10-09T21:11:46.704Z,57.21
2022-10-09T21:14:14.348Z,57.22
2022-10-09T21:16:42.146Z,57.28
2022-10-09T21:19:12.074Z,57.18
2022-10-09T21:21:41.086Z,57.13
2022-10-09T21:24:08.727Z,57.28
2022-10-09T21:26:36.443Z,57.23
2022-10-09T21:29:04.931Z,57.24
2022-10-09T21:31:33.237Z,56.78
2022-10-09T21:34:01.737Z,57.27
2022-10-09T21:36:35.754Z,57.15
2022-10-09T21:39:06.197Z,57.10
2022-10-09T21:41:33.984Z,57.18
2022-10-09T21:44:01.936Z,57.18
2022-10-09T21:46:29.774Z,57.29
2022-10-09T21:48:57.688Z,57.13
2022-10-09T21:51:25.787Z,56.94
2022-10-09T21:53:54.303Z,57.05
2022-10-09T21:56:24.077Z,57.20
2022-10-09T21:58:51.942Z,56.88
2022-10-09T22:01:19.719Z,56.90
2022-10-09T22:03:47.486Z,57.19
2022-10-09T22:06:19.216Z,56.92
2022-10-09T22:08:47.899Z,56.98
2022-10-09T22:11:16.321Z,56.74
2022-10-09T22:13:45.449Z,57.05
2022-10-09T22:16:15.290Z,56.89
2022-10-09T22:18:43.162Z,57.11
2022-10-09T22:21:13.102Z,56.88
2022-10-09T22:23:41.247Z,56.96
2022-10-09T22:26:13.164Z,56.83
2022-10-09T22:28:40.867Z,56.92
2022-10-09T22:31:12.522Z,56.83
2022-10-09T22:33:40.295Z,56.71
2022-10-09T22:36:10.170Z,56.79
2022-10-09T22:38:38.684Z,57.05
2022-10-09T22:41:08.811Z,57.21
2022-10-09T22:43:37.137Z,56.86
2022-10-09T22:46:11.990Z,56.99
2022-10-09T22:48:39.901Z,56.76
2022-10-09T22:51:09.131Z,57.24
2022-10-09T22:53:37.564Z,56.68
2022-10-09T22:56:06.261Z,56.93
2022-10-09T22:58:33.983Z,56.97
2022-10-09T23:01:04.376Z,56.89
2022-10-09T23:03:33.631Z,57.23
2022-10-09T23:06:09.473Z,57.11
2022-10-09T23:08:38.664Z,56.83
2022-10-09T23:11:06.402Z,57.00
2022-10-09T23:13:34.151Z,57.01
2022-10-09T23:16:02.138Z,56.81
2022-10-09T23:18:30.432Z,57.10
2022-10-09T23:20:59.590Z,56.80
2022-10-09T23:23:29.048Z,56.99
2022-10-09T23:25:56.761Z,56.94
2022-10-09T23:28:26.491Z,57.16
2022-10-09T23:30:54.211Z,56.80
2022-10-09T23:33:21.812Z,57.14
2022-10-09T23:35:49.462Z,57.32
2022-10-09T23:38:18.424Z,57.22
2022-10-09T23:40:55.810Z,57.01
2022-10-09T23:43:23.526Z,57.06
2022-10-09T23:45:51.294Z,57.03
2022-10-09T23:48:19.169Z,57.28
2022-10-09T23:50:48.933Z,57.31
2022-10-09T23:53:18.366Z,57.32
2022-10-09T23:55:46.603Z,57.22
2022-10-09T23:58:19.834Z,57.46
